sensor_id;sensor_type;location;lat;lon;timestamp;temperature;humidity
20102;DHT22;10210;52.284;9.892;2022-07-06T00:01:50;22.30;91.00
20102;DHT22;10210;52.284;9.892;2022-07-06T00:04:17;22.30;91.00
20102;DHT22;10210;52.284;9.892;2022-07-06T00:06:44;22.30;91.00
20102;DHT22;10210;52.284;9.892;2022-07-06T00:09:10;22.30;91.00
20102;DHT22;10210;52.284;9.892;2022-07-06T00:11:36;22.30;91.00
20102;DHT22;10210;52.284;9.892;2022-07-06T00:14:01;22.20;91.00
20102;DHT22;10210;52.284;9.892;2022-07-06T00:16:28;22.20;91.00
20102;DHT22;10210;52.284;9.892;2022-07-06T00:18:54;22.20;91.10
20102;DHT22;10210;52.284;9.892;2022-07-06T00:21:19;22.10;91.10
20102;DHT22;10210;52.284;9.892;2022-07-06T00:23:45;22.10;91.10
20102;DHT22;10210;52.284;9.892;2022-07-06T00:26:11;22.10;91.10
20102;DHT22;10210;52.284;9.892;2022-07-06T00:28:36;22.10;91.20
20102;DHT22;10210;52.284;9.892;2022-07-06T00:31:02;22.00;91.10
20102;DHT22;10210;52.284;9.892;2022-07-06T00:33:29;21.90;91.10
20102;DHT22;10210;52.284;9.892;2022-07-06T00:35:55;21.90;91.20
20102;DHT22;10210;52.284;9.892;2022-07-06T00:38:20;21.90;91.10
20102;DHT22;10210;52.284;9.892;2022-07-06T00:40:46;21.80;91.10
20102;DHT22;10210;52.284;9.892;2022-07-06T00:43:12;21.80;91.10
20102;DHT22;10210;52.284;9.892;2022-07-06T00:45:37;21.80;91.10
20102;DHT22;10210;52.284;9.892;2022-07-06T00:48:03;21.70;91.10
20102;DHT22;10210;52.284;9.892;2022-07-06T00:50:30;21.70;91.20
20102;DHT22;10210;52.284;9.892;2022-07-06T00:53:01;21.70;91.30
20102;DHT22;10210;52.284;9.892;2022-07-06T00:55:37;21.60;91.40
20102;DHT22;10210;52.284;9.892;2022-07-06T00:58:07;21.70;91.50
20102;DHT22;10210;52.284;9.892;2022-07-06T01:00:35;21.60;91.40
20102;DHT22;10210;52.284;9.892;2022-07-06T01:03:01;21.60;91.50
20102;DHT22;10210;52.284;9.892;2022-07-06T01:05:27;21.60;91.60
20102;DHT22;10210;52.284;9.892;2022-07-06T01:07:53;21.60;91.70
20102;DHT22;10210;52.284;9.892;2022-07-06T01:10:20;21.60;91.80
20102;DHT22;10210;52.284;9.892;2022-07-06T01:12:47;21.60;91.90
20102;DHT22;10210;52.284;9.892;2022-07-06T01:15:16;21.60;92.10
20102;DHT22;10210;52.284;9.892;2022-07-06T01:17:44;21.60;92.10
20102;DHT22;10210;52.284;9.892;2022-07-06T01:20:13;21.60;92.10
20102;DHT22;10210;52.284;9.892;2022-07-06T01:22:48;21.60;92.10
20102;DHT22;10210;52.284;9.892;2022-07-06T01:25:15;21.60;92.10
20102;DHT22;10210;52.284;9.892;2022-07-06T01:27:44;21.50;92.10
20102;DHT22;10210;52.284;9.892;2022-07-06T01:30:15;21.50;92.10
20102;DHT22;10210;52.284;9.892;2022-07-06T01:32:44;21.50;92.10
20102;DHT22;10210;52.284;9.892;2022-07-06T01:35:11;21.50;92.10
20102;DHT22;10210;52.284;9.892;2022-07-06T01:37:41;21.40;92.10
20102;DHT22;10210;52.284;9.892;2022-07-06T01:40:08;21.40;92.10
20102;DHT22;10210;52.284;9.892;2022-07-06T01:42:36;21.40;92.20
20102;DHT22;10210;52.284;9.892;2022-07-06T01:45:05;21.30;92.10
20102;DHT22;10210;52.284;9.892;2022-07-06T01:47:31;21.30;92.20
20102;DHT22;10210;52.284;9.892;2022-07-06T01:49:59;21.30;92.20
20102;DHT22;10210;52.284;9.892;2022-07-06T01:52:26;21.20;92.20
20102;DHT22;10210;52.284;9.892;2022-07-06T01:54:53;21.20;92.30
20102;DHT22;10210;52.284;9.892;2022-07-06T01:57:19;21.10;92.30
20102;DHT22;10210;52.284;9.892;2022-07-06T01:59:45;21.10;92.30
20102;DHT22;10210;52.284;9.892;2022-07-06T02:02:10;21.10;92.40
20102;DHT22;10210;52.284;9.892;2022-07-06T02:04:36;21.00;92.50
20102;DHT22;10210;52.284;9.892;2022-07-06T02:07:02;21.00;92.50
20102;DHT22;10210;52.284;9.892;2022-07-06T02:09:28;21.00;92.60
20102;DHT22;10210;52.284;9.892;2022-07-06T02:11:54;20.90;92.60
20102;DHT22;10210;52.284;9.892;2022-07-06T02:14:19;20.80;92.60
20102;DHT22;10210;52.284;9.892;2022-07-06T02:16:45;20.80;92.70
20102;DHT22;10210;52.284;9.892;2022-07-06T02:19:10;20.80;92.70
20102;DHT22;10210;52.284;9.892;2022-07-06T02:21:36;20.70;92.70
20102;DHT22;10210;52.284;9.892;2022-07-06T02:24:02;20.70;92.80
20102;DHT22;10210;52.284;9.892;2022-07-06T02:26:28;20.70;92.90
20102;DHT22;10210;52.284;9.892;2022-07-06T02:28:53;20.70;93.00
20102;DHT22;10210;52.284;9.892;2022-07-06T02:31:19;20.70;93.10
20102;DHT22;10210;52.284;9.892;2022-07-06T02:33:44;20.60;93.10
20102;DHT22;10210;52.284;9.892;2022-07-06T02:36:10;20.60;93.10
20102;DHT22;10210;52.284;9.892;2022-07-06T02:38:36;20.60;93.20
20102;DHT22;10210;52.284;9.892;2022-07-06T02:41:02;20.60;93.20
20102;DHT22;10210;52.284;9.892;2022-07-06T02:43:28;20.60;93.30
20102;DHT22;10210;52.284;9.892;2022-07-06T02:45:54;20.60;93.40
20102;DHT22;10210;52.284;9.892;2022-07-06T02:48:19;20.60;93.40
20102;DHT22;10210;52.284;9.892;2022-07-06T02:50:47;20.60;93.40
20102;DHT22;10210;52.284;9.892;2022-07-06T02:53:13;20.60;93.50
20102;DHT22;10210;52.284;9.892;2022-07-06T02:55:38;20.60;93.60
20102;DHT22;10210;52.284;9.892;2022-07-06T02:58:04;20.50;93.60
20102;DHT22;10210;52.284;9.892;2022-07-06T03:00:30;20.50;93.60
20102;DHT22;10210;52.284;9.892;2022-07-06T03:02:55;20.50;93.60
20102;DHT22;10210;52.284;9.892;2022-07-06T03:05:21;20.50;93.60
20102;DHT22;10210;52.284;9.892;2022-07-06T03:07:47;20.50;93.70
20102;DHT22;10210;52.284;9.892;2022-07-06T03:10:12;20.40;93.70
20102;DHT22;10210;52.284;9.892;2022-07-06T03:12:38;20.40;93.90
20102;DHT22;10210;52.284;9.892;2022-07-06T03:15:04;20.40;93.90
20102;DHT22;10210;52.284;9.892;2022-07-06T03:17:30;20.40;94.00
20102;DHT22;10210;52.284;9.892;2022-07-06T03:19:55;20.30;94.00
20102;DHT22;10210;52.284;9.892;2022-07-06T03:22:21;20.30;94.10
20102;DHT22;10210;52.284;9.892;2022-07-06T03:24:46;20.20;94.10
20102;DHT22;10210;52.284;9.892;2022-07-06T03:27:12;20.20;94.20
20102;DHT22;10210;52.284;9.892;2022-07-06T03:29:38;20.20;94.30
20102;DHT22;10210;52.284;9.892;2022-07-06T03:32:04;20.20;94.30
20102;DHT22;10210;52.284;9.892;2022-07-06T03:34:29;20.10;94.40
20102;DHT22;10210;52.284;9.892;2022-07-06T03:36:55;20.10;94.90
20102;DHT22;10210;52.284;9.892;2022-07-06T03:39:21;20.10;94.60
20102;DHT22;10210;52.284;9.892;2022-07-06T03:41:46;20.00;94.60
20102;DHT22;10210;52.284;9.892;2022-07-06T03:44:12;20.00;94.70
20102;DHT22;10210;52.284;9.892;2022-07-06T03:46:37;20.00;94.90
20102;DHT22;10210;52.284;9.892;2022-07-06T03:49:03;19.90;94.90
20102;DHT22;10210;52.284;9.892;2022-07-06T03:51:29;19.90;95.00
20102;DHT22;10210;52.284;9.892;2022-07-06T03:53:54;19.90;95.10
20102;DHT22;10210;52.284;9.892;2022-07-06T03:56:20;19.80;95.20
20102;DHT22;10210;52.284;9.892;2022-07-06T03:58:56;19.80;95.30
20102;DHT22;10210;52.284;9.892;2022-07-06T04:01:22;19.80;95.80
20102;DHT22;10210;52.284;9.892;2022-07-06T04:03:48;19.80;95.50
20102;DHT22;10210;52.284;9.892;2022-07-06T04:06:14;19.70;95.50
20102;DHT22;10210;52.284;9.892;2022-07-06T04:08:40;19.70;95.60
20102;DHT22;10210;52.284;9.892;2022-07-06T04:11:05;19.70;96.20
20102;DHT22;10210;52.284;9.892;2022-07-06T04:13:31;19.70;95.90
20102;DHT22;10210;52.284;9.892;2022-07-06T04:15:57;19.70;96.00
20102;DHT22;10210;52.284;9.892;2022-07-06T04:18:24;19.70;96.10
20102;DHT22;10210;52.284;9.892;2022-07-06T04:20:49;19.70;96.20
20102;DHT22;10210;52.284;9.892;2022-07-06T04:23:15;19.60;96.30
20102;DHT22;10210;52.284;9.892;2022-07-06T04:25:41;19.60;96.30
20102;DHT22;10210;52.284;9.892;2022-07-06T04:28:07;19.60;96.40
20102;DHT22;10210;52.284;9.892;2022-07-06T04:30:33;19.70;96.50
20102;DHT22;10210;52.284;9.892;2022-07-06T04:32:59;19.70;96.60
20102;DHT22;10210;52.284;9.892;2022-07-06T04:35:25;19.70;96.70
20102;DHT22;10210;52.284;9.892;2022-07-06T04:37:50;19.60;96.80
20102;DHT22;10210;52.284;9.892;2022-07-06T04:40:16;19.60;96.80
20102;DHT22;10210;52.284;9.892;2022-07-06T04:42:42;19.60;96.90
20102;DHT22;10210;52.284;9.892;2022-07-06T04:45:08;19.60;97.00
20102;DHT22;10210;52.284;9.892;2022-07-06T04:47:34;19.60;97.10
20102;DHT22;10210;52.284;9.892;2022-07-06T04:50:01;19.70;97.30
20102;DHT22;10210;52.284;9.892;2022-07-06T04:52:28;19.70;97.60
20102;DHT22;10210;52.284;9.892;2022-07-06T04:54:56;19.70;97.70
20102;DHT22;10210;52.284;9.892;2022-07-06T04:57:23;19.70;97.90
20102;DHT22;10210;52.284;9.892;2022-07-06T04:59:51;19.70;98.00
20102;DHT22;10210;52.284;9.892;2022-07-06T05:02:17;19.70;98.00
20102;DHT22;10210;52.284;9.892;2022-07-06T05:04:44;19.80;98.20
20102;DHT22;10210;52.284;9.892;2022-07-06T05:07:10;19.80;98.20
20102;DHT22;10210;52.284;9.892;2022-07-06T05:09:35;19.80;98.20
20102;DHT22;10210;52.284;9.892;2022-07-06T05:12:01;19.80;98.30
20102;DHT22;10210;52.284;9.892;2022-07-06T05:14:26;19.80;98.50
20102;DHT22;10210;52.284;9.892;2022-07-06T05:16:52;19.80;98.50
20102;DHT22;10210;52.284;9.892;2022-07-06T05:19:18;19.80;98.70
20102;DHT22;10210;52.284;9.892;2022-07-06T05:21:44;19.90;98.80
20102;DHT22;10210;52.284;9.892;2022-07-06T05:24:10;19.80;99.00
20102;DHT22;10210;52.284;9.892;2022-07-06T05:26:35;19.90;99.10
20102;DHT22;10210;52.284;9.892;2022-07-06T05:29:01;19.80;99.10
20102;DHT22;10210;52.284;9.892;2022-07-06T05:31:27;19.90;99.20
20102;DHT22;10210;52.284;9.892;2022-07-06T05:33:52;19.90;99.40
20102;DHT22;10210;52.284;9.892;2022-07-06T05:36:18;19.90;99.50
20102;DHT22;10210;52.284;9.892;2022-07-06T05:38:44;19.90;99.60
20102;DHT22;10210;52.284;9.892;2022-07-06T05:41:09;19.90;99.70
20102;DHT22;10210;52.284;9.892;2022-07-06T05:43:36;19.90;99.80
20102;DHT22;10210;52.284;9.892;2022-07-06T05:46:02;19.90;99.90
20102;DHT22;10210;52.284;9.892;2022-07-06T05:48:29;20.00;99.90
20102;DHT22;10210;52.284;9.892;2022-07-06T05:51:13;20.00;99.90
20102;DHT22;10210;52.284;9.892;2022-07-06T05:53:39;20.00;99.90
20102;DHT22;10210;52.284;9.892;2022-07-06T05:56:05;20.10;99.90
20102;DHT22;10210;52.284;9.892;2022-07-06T05:58:31;20.10;99.90
20102;DHT22;10210;52.284;9.892;2022-07-06T06:00:56;20.10;99.90
20102;DHT22;10210;52.284;9.892;2022-07-06T06:03:22;20.10;99.90
20102;DHT22;10210;52.284;9.892;2022-07-06T06:05:48;20.10;99.90
20102;DHT22;10210;52.284;9.892;2022-07-06T06:08:14;20.20;99.90
20102;DHT22;10210;52.284;9.892;2022-07-06T06:10:40;20.20;99.90
20102;DHT22;10210;52.284;9.892;2022-07-06T06:13:06;20.20;99.90
20102;DHT22;10210;52.284;9.892;2022-07-06T06:15:32;20.20;99.90
20102;DHT22;10210;52.284;9.892;2022-07-06T06:17:58;20.30;99.90
20102;DHT22;10210;52.284;9.892;2022-07-06T06:20:24;20.30;99.90
20102;DHT22;10210;52.284;9.892;2022-07-06T06:22:54;20.40;99.90
20102;DHT22;10210;52.284;9.892;2022-07-06T06:27:59;20.40;99.90
20102;DHT22;10210;52.284;9.892;2022-07-06T06:30:26;20.40;99.90
20102;DHT22;10210;52.284;9.892;2022-07-06T06:33:04;20.50;99.90
20102;DHT22;10210;52.284;9.892;2022-07-06T06:35:38;20.50;99.90
20102;DHT22;10210;52.284;9.892;2022-07-06T06:38:07;20.50;99.90
20102;DHT22;10210;52.284;9.892;2022-07-06T06:40:32;20.50;99.90
20102;DHT22;10210;52.284;9.892;2022-07-06T06:42:58;20.60;99.90
20102;DHT22;10210;52.284;9.892;2022-07-06T06:45:24;20.60;99.90
20102;DHT22;10210;52.284;9.892;2022-07-06T06:47:49;20.60;99.90
20102;DHT22;10210;52.284;9.892;2022-07-06T06:50:15;20.60;99.90
20102;DHT22;10210;52.284;9.892;2022-07-06T06:52:41;20.70;99.90
20102;DHT22;10210;52.284;9.892;2022-07-06T06:55:07;20.70;99.90
20102;DHT22;10210;52.284;9.892;2022-07-06T06:57:33;20.70;99.90
20102;DHT22;10210;52.284;9.892;2022-07-06T06:59:59;20.70;99.90
20102;DHT22;10210;52.284;9.892;2022-07-06T07:02:25;20.70;99.90
20102;DHT22;10210;52.284;9.892;2022-07-06T07:04:50;20.70;99.90
20102;DHT22;10210;52.284;9.892;2022-07-06T07:07:16;20.80;99.90
20102;DHT22;10210;52.284;9.892;2022-07-06T07:09:42;20.80;99.90
20102;DHT22;10210;52.284;9.892;2022-07-06T07:12:07;20.80;99.70
20102;DHT22;10210;52.284;9.892;2022-07-06T07:14:33;20.80;99.70
20102;DHT22;10210;52.284;9.892;2022-07-06T07:16:59;20.70;99.70
20102;DHT22;10210;52.284;9.892;2022-07-06T07:19:24;20.70;99.60
20102;DHT22;10210;52.284;9.892;2022-07-06T07:21:50;20.70;99.70
20102;DHT22;10210;52.284;9.892;2022-07-06T07:24:16;20.70;99.70
20102;DHT22;10210;52.284;9.892;2022-07-06T07:26:41;20.70;99.50
20102;DHT22;10210;52.284;9.892;2022-07-06T07:29:07;20.70;99.40
20102;DHT22;10210;52.284;9.892;2022-07-06T07:31:33;20.70;99.50
20102;DHT22;10210;52.284;9.892;2022-07-06T07:33:58;20.70;99.40
20102;DHT22;10210;52.284;9.892;2022-07-06T07:36:25;20.70;98.90
20102;DHT22;10210;52.284;9.892;2022-07-06T07:38:51;20.70;98.80
20102;DHT22;10210;52.284;9.892;2022-07-06T07:41:17;20.80;98.90
20102;DHT22;10210;52.284;9.892;2022-07-06T07:43:44;20.80;98.70
20102;DHT22;10210;52.284;9.892;2022-07-06T07:46:10;20.80;98.50
20102;DHT22;10210;52.284;9.892;2022-07-06T07:48:35;20.90;98.20
20102;DHT22;10210;52.284;9.892;2022-07-06T07:51:01;20.90;98.00
20102;DHT22;10210;52.284;9.892;2022-07-06T07:53:27;20.90;98.20
20102;DHT22;10210;52.284;9.892;2022-07-06T07:55:52;20.90;98.30
20102;DHT22;10210;52.284;9.892;2022-07-06T07:58:18;20.90;98.20
20102;DHT22;10210;52.284;9.892;2022-07-06T08:00:44;21.00;98.10
20102;DHT22;10210;52.284;9.892;2022-07-06T08:03:11;21.00;98.00
20102;DHT22;10210;52.284;9.892;2022-07-06T08:05:37;21.00;97.80
20102;DHT22;10210;52.284;9.892;2022-07-06T08:08:03;21.00;98.00
20102;DHT22;10210;52.284;9.892;2022-07-06T08:10:29;21.10;98.00
20102;DHT22;10210;52.284;9.892;2022-07-06T08:12:55;21.10;97.90
20102;DHT22;10210;52.284;9.892;2022-07-06T08:15:21;21.20;97.60
20102;DHT22;10210;52.284;9.892;2022-07-06T08:17:47;21.20;97.80
20102;DHT22;10210;52.284;9.892;2022-07-06T08:20:14;21.20;97.70
20102;DHT22;10210;52.284;9.892;2022-07-06T08:22:42;21.30;97.60
20102;DHT22;10210;52.284;9.892;2022-07-06T08:25:08;21.30;97.30
20102;DHT22;10210;52.284;9.892;2022-07-06T08:27:34;21.30;97.30
20102;DHT22;10210;52.284;9.892;2022-07-06T08:30:01;21.40;97.40
20102;DHT22;10210;52.284;9.892;2022-07-06T08:32:27;21.40;97.20
20102;DHT22;10210;52.284;9.892;2022-07-06T08:34:53;21.40;97.00
20102;DHT22;10210;52.284;9.892;2022-07-06T08:37:19;21.50;97.20
20102;DHT22;10210;52.284;9.892;2022-07-06T08:39:45;21.50;97.00
20102;DHT22;10210;52.284;9.892;2022-07-06T08:42:11;21.60;96.60
20102;DHT22;10210;52.284;9.892;2022-07-06T08:44:38;21.60;96.10
20102;DHT22;10210;52.284;9.892;2022-07-06T08:47:05;21.70;95.80
20102;DHT22;10210;52.284;9.892;2022-07-06T08:49:33;21.70;94.90
20102;DHT22;10210;52.284;9.892;2022-07-06T08:52:00;21.70;95.20
20102;DHT22;10210;52.284;9.892;2022-07-06T08:54:28;21.70;94.80
20102;DHT22;10210;52.284;9.892;2022-07-06T08:56:54;21.80;94.90
20102;DHT22;10210;52.284;9.892;2022-07-06T08:59:20;21.90;94.60
20102;DHT22;10210;52.284;9.892;2022-07-06T09:01:46;22.00;94.70
20102;DHT22;10210;52.284;9.892;2022-07-06T09:04:15;22.00;94.50
20102;DHT22;10210;52.284;9.892;2022-07-06T09:06:43;22.10;94.30
20102;DHT22;10210;52.284;9.892;2022-07-06T09:09:19;22.20;94.50
20102;DHT22;10210;52.284;9.892;2022-07-06T09:11:47;22.30;93.90
20102;DHT22;10210;52.284;9.892;2022-07-06T09:14:13;22.40;93.20
20102;DHT22;10210;52.284;9.892;2022-07-06T09:16:39;22.40;93.10
20102;DHT22;10210;52.284;9.892;2022-07-06T09:19:06;22.50;93.40
20102;DHT22;10210;52.284;9.892;2022-07-06T09:21:33;22.60;93.40
20102;DHT22;10210;52.284;9.892;2022-07-06T09:24:05;22.70;93.40
20102;DHT22;10210;52.284;9.892;2022-07-06T09:26:32;22.80;93.00
20102;DHT22;10210;52.284;9.892;2022-07-06T09:28:59;22.90;92.70
20102;DHT22;10210;52.284;9.892;2022-07-06T09:31:25;23.00;92.80
20102;DHT22;10210;52.284;9.892;2022-07-06T09:34:00;23.00;92.70
20102;DHT22;10210;52.284;9.892;2022-07-06T09:36:45;23.00;91.80
20102;DHT22;10210;52.284;9.892;2022-07-06T09:41:53;23.10;90.70
20102;DHT22;10210;52.284;9.892;2022-07-06T09:44:29;23.10;90.80
20102;DHT22;10210;52.284;9.892;2022-07-06T09:46:59;23.10;90.20
20102;DHT22;10210;52.284;9.892;2022-07-06T09:49:26;23.10;90.30
20102;DHT22;10210;52.284;9.892;2022-07-06T09:51:56;23.10;90.00
20102;DHT22;10210;52.284;9.892;2022-07-06T09:54:42;23.10;89.80
20102;DHT22;10210;52.284;9.892;2022-07-06T09:57:08;23.00;88.80
20102;DHT22;10210;52.284;9.892;2022-07-06T09:59:35;23.00;89.10
20102;DHT22;10210;52.284;9.892;2022-07-06T10:02:09;23.00;89.30
20102;DHT22;10210;52.284;9.892;2022-07-06T10:04:45;22.90;88.40
20102;DHT22;10210;52.284;9.892;2022-07-06T10:07:12;22.90;88.40
20102;DHT22;10210;52.284;9.892;2022-07-06T10:09:40;22.80;89.00
20102;DHT22;10210;52.284;9.892;2022-07-06T10:12:09;22.70;88.70
20102;DHT22;10210;52.284;9.892;2022-07-06T10:14:37;22.60;88.90
20102;DHT22;10210;52.284;9.892;2022-07-06T10:17:05;22.60;89.00
20102;DHT22;10210;52.284;9.892;2022-07-06T10:19:33;22.50;89.20
20102;DHT22;10210;52.284;9.892;2022-07-06T10:22:01;22.50;89.10
20102;DHT22;10210;52.284;9.892;2022-07-06T10:24:29;22.40;89.20
20102;DHT22;10210;52.284;9.892;2022-07-06T10:27:02;22.30;89.50
20102;DHT22;10210;52.284;9.892;2022-07-06T10:29:30;22.30;89.50
20102;DHT22;10210;52.284;9.892;2022-07-06T10:31:56;22.30;89.50
20102;DHT22;10210;52.284;9.892;2022-07-06T10:34:22;22.30;89.60
20102;DHT22;10210;52.284;9.892;2022-07-06T10:36:52;22.30;89.80
20102;DHT22;10210;52.284;9.892;2022-07-06T10:39:37;22.30;89.40
20102;DHT22;10210;52.284;9.892;2022-07-06T10:42:39;22.30;88.50
20102;DHT22;10210;52.284;9.892;2022-07-06T10:45:08;22.40;88.90
20102;DHT22;10210;52.284;9.892;2022-07-06T10:47:36;22.50;89.50
20102;DHT22;10210;52.284;9.892;2022-07-06T10:50:03;22.60;89.00
20102;DHT22;10210;52.284;9.892;2022-07-06T10:52:52;22.70;88.90
20102;DHT22;10210;52.284;9.892;2022-07-06T10:55:36;22.90;88.20
20102;DHT22;10210;52.284;9.892;2022-07-06T10:58:04;23.10;88.30
20102;DHT22;10210;52.284;9.892;2022-07-06T11:00:55;23.20;88.20
20102;DHT22;10210;52.284;9.892;2022-07-06T11:06:24;23.40;87.50
20102;DHT22;10210;52.284;9.892;2022-07-06T11:09:01;23.50;86.60
20102;DHT22;10210;52.284;9.892;2022-07-06T11:14:07;23.60;85.30
20102;DHT22;10210;52.284;9.892;2022-07-06T11:19:18;23.60;85.10
20102;DHT22;10210;52.284;9.892;2022-07-06T11:21:46;23.60;84.80
20102;DHT22;10210;52.284;9.892;2022-07-06T11:24:19;23.60;83.70
20102;DHT22;10210;52.284;9.892;2022-07-06T11:26:50;23.60;83.70
20102;DHT22;10210;52.284;9.892;2022-07-06T11:29:19;23.60;84.90
20102;DHT22;10210;52.284;9.892;2022-07-06T11:31:48;23.60;84.10
20102;DHT22;10210;52.284;9.892;2022-07-06T11:34:26;23.60;84.30
20102;DHT22;10210;52.284;9.892;2022-07-06T11:36:59;23.70;83.70
20102;DHT22;10210;52.284;9.892;2022-07-06T11:39:34;23.70;84.30
20102;DHT22;10210;52.284;9.892;2022-07-06T11:42:02;23.70;83.50
20102;DHT22;10210;52.284;9.892;2022-07-06T11:44:30;23.80;82.90
20102;DHT22;10210;52.284;9.892;2022-07-06T11:46:58;23.70;82.90
20102;DHT22;10210;52.284;9.892;2022-07-06T11:49:30;23.80;84.00
20102;DHT22;10210;52.284;9.892;2022-07-06T11:51:58;23.80;84.20
20102;DHT22;10210;52.284;9.892;2022-07-06T11:54:24;23.90;83.40
20102;DHT22;10210;52.284;9.892;2022-07-06T11:56:56;23.90;83.40
20102;DHT22;10210;52.284;9.892;2022-07-06T11:59:28;23.90;82.90
20102;DHT22;10210;52.284;9.892;2022-07-06T12:04:32;23.90;82.80
20102;DHT22;10210;52.284;9.892;2022-07-06T12:07:17;23.90;83.10
20102;DHT22;10210;52.284;9.892;2022-07-06T12:09:45;23.90;82.70
20102;DHT22;10210;52.284;9.892;2022-07-06T12:12:13;23.90;82.00
20102;DHT22;10210;52.284;9.892;2022-07-06T12:14:40;23.80;81.90
20102;DHT22;10210;52.284;9.892;2022-07-06T12:17:12;23.80;81.40
20102;DHT22;10210;52.284;9.892;2022-07-06T12:19:39;23.70;81.10
20102;DHT22;10210;52.284;9.892;2022-07-06T12:22:07;23.70;81.00
20102;DHT22;10210;52.284;9.892;2022-07-06T12:24:35;23.70;81.40
20102;DHT22;10210;52.284;9.892;2022-07-06T12:27:19;23.70;81.70
20102;DHT22;10210;52.284;9.892;2022-07-06T12:29:46;23.60;81.30
20102;DHT22;10210;52.284;9.892;2022-07-06T12:32:18;23.70;81.20
20102;DHT22;10210;52.284;9.892;2022-07-06T12:34:47;23.60;81.10
20102;DHT22;10210;52.284;9.892;2022-07-06T12:37:27;23.60;81.10
20102;DHT22;10210;52.284;9.892;2022-07-06T12:39:53;23.60;81.00
20102;DHT22;10210;52.284;9.892;2022-07-06T12:42:19;23.60;80.70
20102;DHT22;10210;52.284;9.892;2022-07-06T12:44:52;23.50;81.00
20102;DHT22;10210;52.284;9.892;2022-07-06T12:47:24;23.50;81.60
20102;DHT22;10210;52.284;9.892;2022-07-06T12:50:10;23.50;81.50
20102;DHT22;10210;52.284;9.892;2022-07-06T12:52:37;23.50;81.90
20102;DHT22;10210;52.284;9.892;2022-07-06T12:55:04;23.60;82.10
20102;DHT22;10210;52.284;9.892;2022-07-06T12:57:43;23.50;82.10
20102;DHT22;10210;52.284;9.892;2022-07-06T13:00:12;23.60;82.20
20102;DHT22;10210;52.284;9.892;2022-07-06T13:02:38;23.60;82.60
20102;DHT22;10210;52.284;9.892;2022-07-06T13:05:06;23.60;82.30
20102;DHT22;10210;52.284;9.892;2022-07-06T13:07:36;23.70;82.30
20102;DHT22;10210;52.284;9.892;2022-07-06T13:10:09;23.80;81.80
20102;DHT22;10210;52.284;9.892;2022-07-06T13:12:35;23.80;82.10
20102;DHT22;10210;52.284;9.892;2022-07-06T13:15:02;23.80;82.00
20102;DHT22;10210;52.284;9.892;2022-07-06T13:17:29;23.90;82.20
20102;DHT22;10210;52.284;9.892;2022-07-06T13:19:55;23.90;81.60
20102;DHT22;10210;52.284;9.892;2022-07-06T13:22:20;23.90;81.50
20102;DHT22;10210;52.284;9.892;2022-07-06T13:24:46;24.00;81.40
20102;DHT22;10210;52.284;9.892;2022-07-06T13:27:12;24.10;81.50
20102;DHT22;10210;52.284;9.892;2022-07-06T13:29:38;24.10;82.00
20102;DHT22;10210;52.284;9.892;2022-07-06T13:32:05;24.20;82.20
20102;DHT22;10210;52.284;9.892;2022-07-06T13:34:32;24.30;82.20
20102;DHT22;10210;52.284;9.892;2022-07-06T13:36:58;24.50;82.00
20102;DHT22;10210;52.284;9.892;2022-07-06T13:39:23;24.50;81.50
20102;DHT22;10210;52.284;9.892;2022-07-06T13:41:49;24.60;80.60
20102;DHT22;10210;52.284;9.892;2022-07-06T13:44:15;24.60;80.40
20102;DHT22;10210;52.284;9.892;2022-07-06T13:46:41;24.70;80.00
20102;DHT22;10210;52.284;9.892;2022-07-06T13:49:08;24.70;80.10
20102;DHT22;10210;52.284;9.892;2022-07-06T13:51:34;24.70;80.00
20102;DHT22;10210;52.284;9.892;2022-07-06T13:54:00;24.70;80.30
20102;DHT22;10210;52.284;9.892;2022-07-06T13:56:26;24.80;80.10
20102;DHT22;10210;52.284;9.892;2022-07-06T13:58:53;24.80;79.40
20102;DHT22;10210;52.284;9.892;2022-07-06T14:01:20;24.90;79.20
20102;DHT22;10210;52.284;9.892;2022-07-06T14:03:46;24.90;79.30
20102;DHT22;10210;52.284;9.892;2022-07-06T14:06:12;25.00;79.50
20102;DHT22;10210;52.284;9.892;2022-07-06T14:08:39;25.10;79.00
20102;DHT22;10210;52.284;9.892;2022-07-06T14:11:06;25.10;78.90
20102;DHT22;10210;52.284;9.892;2022-07-06T14:13:35;25.20;78.80
20102;DHT22;10210;52.284;9.892;2022-07-06T14:16:02;25.10;78.50
20102;DHT22;10210;52.284;9.892;2022-07-06T14:18:28;25.10;78.70
20102;DHT22;10210;52.284;9.892;2022-07-06T14:20:54;25.10;78.50
20102;DHT22;10210;52.284;9.892;2022-07-06T14:23:21;25.10;78.70
20102;DHT22;10210;52.284;9.892;2022-07-06T14:25:48;25.00;78.90
20102;DHT22;10210;52.284;9.892;2022-07-06T14:28:15;25.00;79.20
20102;DHT22;10210;52.284;9.892;2022-07-06T14:30:42;25.00;79.20
20102;DHT22;10210;52.284;9.892;2022-07-06T14:33:11;24.90;79.20
20102;DHT22;10210;52.284;9.892;2022-07-06T14:35:47;24.90;79.50
20102;DHT22;10210;52.284;9.892;2022-07-06T14:38:17;25.00;79.50
20102;DHT22;10210;52.284;9.892;2022-07-06T14:40:44;25.10;79.40
20102;DHT22;10210;52.284;9.892;2022-07-06T14:43:11;25.10;78.90
20102;DHT22;10210;52.284;9.892;2022-07-06T14:45:36;25.20;79.00
20102;DHT22;10210;52.284;9.892;2022-07-06T14:48:03;25.30;79.40
20102;DHT22;10210;52.284;9.892;2022-07-06T14:50:33;25.40;79.30
20102;DHT22;10210;52.284;9.892;2022-07-06T14:53:02;25.50;79.10
20102;DHT22;10210;52.284;9.892;2022-07-06T14:55:28;25.60;78.70
20102;DHT22;10210;52.284;9.892;2022-07-06T14:57:54;25.70;78.40
20102;DHT22;10210;52.284;9.892;2022-07-06T15:00:23;25.70;78.80
20102;DHT22;10210;52.284;9.892;2022-07-06T15:02:49;25.70;78.90
20102;DHT22;10210;52.284;9.892;2022-07-06T15:05:14;25.80;78.50
20102;DHT22;10210;52.284;9.892;2022-07-06T15:07:40;25.80;78.20
20102;DHT22;10210;52.284;9.892;2022-07-06T15:10:07;25.80;78.10
20102;DHT22;10210;52.284;9.892;2022-07-06T15:12:34;25.90;77.90
20102;DHT22;10210;52.284;9.892;2022-07-06T15:14:59;25.90;78.00
20102;DHT22;10210;52.284;9.892;2022-07-06T15:17:25;25.90;77.80
20102;DHT22;10210;52.284;9.892;2022-07-06T15:19:52;25.90;78.00
20102;DHT22;10210;52.284;9.892;2022-07-06T15:22:18;26.00;78.10
20102;DHT22;10210;52.284;9.892;2022-07-06T15:24:45;26.00;77.80
20102;DHT22;10210;52.284;9.892;2022-07-06T15:27:10;25.90;77.40
20102;DHT22;10210;52.284;9.892;2022-07-06T15:29:36;25.90;77.20
20102;DHT22;10210;52.284;9.892;2022-07-06T15:32:01;25.90;77.30
20102;DHT22;10210;52.284;9.892;2022-07-06T15:34:27;25.80;77.10
20102;DHT22;10210;52.284;9.892;2022-07-06T15:36:53;25.80;77.50
20102;DHT22;10210;52.284;9.892;2022-07-06T15:39:20;25.70;77.50
20102;DHT22;10210;52.284;9.892;2022-07-06T15:41:46;25.70;77.30
20102;DHT22;10210;52.284;9.892;2022-07-06T15:44:12;25.70;77.70
20102;DHT22;10210;52.284;9.892;2022-07-06T15:46:38;25.70;78.10
20102;DHT22;10210;52.284;9.892;2022-07-06T15:49:03;25.60;77.80